Time;durP1;ratioP1;P1;durP2;ratioP2;P2;SDS_P1;SDS_P2;PMS_P1;PMS_P2;Temp;Humidity;BMP_temperature;BMP_pressure;BME280_temperature;BME280_humidity;BME280_pressure;Samples;Min_cycle;Max_cycle;Signal;HPM_P1;HPM_P2
2023/12/08 00:00:20;;;;;;;22.58;11.43;;;1.70;99.90;;;;;;5037037;28;20057;-73
2023/12/08 00:02:47;;;;;;;18.97;10.27;;;1.80;99.90;;;;;;5048047;28;20574;-73
2023/12/08 00:05:13;;;;;;;18.95;10.25;;;1.80;99.90;;;;;;5051164;28;20052;-73
2023/12/08 00:07:40;;;;;;;17.55;9.93;;;1.80;99.90;;;;;;5066875;28;20045;-73
2023/12/08 00:10:06;;;;;;;19.73;9.15;;;1.70;99.90;;;;;;5076891;28;20132;-73
2023/12/08 00:12:32;;;;;;;22.85;10.68;;;1.70;99.90;;;;;;5055494;28;20044;-73
2023/12/08 00:14:57;;;;;;;22.95;10.25;;;1.70;99.90;;;;;;5039679;28;20052;-73
2023/12/08 00:17:23;;;;;;;20.90;10.20;;;1.70;99.90;;;;;;5044221;28;20135;-73
2023/12/08 00:19:49;;;;;;;22.00;10.50;;;1.70;99.90;;;;;;5049079;28;20053;-73
2023/12/08 00:22:14;;;;;;;22.48;11.18;;;1.70;99.90;;;;;;5046366;28;20041;-73
2023/12/08 00:24:40;;;;;;;20.30;11.07;;;1.80;99.90;;;;;;5046368;28;20064;-73
2023/12/08 00:27:07;;;;;;;21.08;11.23;;;1.80;99.90;;;;;;5043180;28;20049;-73
2023/12/08 00:29:32;;;;;;;19.07;11.27;;;1.80;99.90;;;;;;5046992;28;20128;-73
2023/12/08 00:31:58;;;;;;;19.27;10.35;;;1.80;99.90;;;;;;5045173;28;20398;-73
2023/12/08 00:34:23;;;;;;;17.60;10.02;;;1.80;99.90;;;;;;5044871;28;21243;-73
2023/12/08 00:36:49;;;;;;;17.85;10.18;;;1.70;99.90;;;;;;5045774;28;20049;-73
2023/12/08 00:39:15;;;;;;;21.55;11.27;;;1.70;99.90;;;;;;5043113;28;20037;-73
2023/12/08 00:41:40;;;;;;;18.27;9.32;;;1.80;99.90;;;;;;5043376;28;20079;-74
2023/12/08 00:44:08;;;;;;;19.05;10.07;;;1.70;99.90;;;;;;5032713;28;20704;-72
2023/12/08 00:46:34;;;;;;;21.35;11.82;;;1.70;99.90;;;;;;5032679;28;20454;-72
2023/12/08 00:49:00;;;;;;;21.73;10.75;;;1.70;99.90;;;;;;5031763;28;20049;-72
2023/12/08 00:51:25;;;;;;;21.52;10.30;;;1.70;99.90;;;;;;5031627;28;20080;-72
2023/12/08 00:53:51;;;;;;;22.58;10.75;;;1.70;99.90;;;;;;5036933;28;20808;-72
2023/12/08 00:56:17;;;;;;;21.15;10.52;;;1.70;99.90;;;;;;5045528;28;20048;-72
2023/12/08 00:58:43;;;;;;;19.27;10.60;;;1.60;99.90;;;;;;5044886;28;20061;-72
2023/12/08 01:01:09;;;;;;;24.33;10.75;;;1.60;99.90;;;;;;5044201;28;20814;-72
2023/12/08 01:03:35;;;;;;;20.80;10.00;;;1.60;99.90;;;;;;5044320;28;20088;-72
2023/12/08 01:06:00;;;;;;;19.23;9.55;;;1.60;99.90;;;;;;5045012;28;20069;-72
2023/12/08 01:08:26;;;;;;;23.52;11.57;;;1.60;99.90;;;;;;5043735;28;20447;-72
2023/12/08 01:10:52;;;;;;;20.40;10.55;;;1.70;99.90;;;;;;5043755;28;20064;-72
2023/12/08 01:13:19;;;;;;;18.33;10.13;;;1.70;99.90;;;;;;5042771;28;20377;-72
2023/12/08 01:15:45;;;;;;;19.60;10.40;;;1.70;99.90;;;;;;5037782;28;20041;-72
2023/12/08 01:18:10;;;;;;;19.52;10.77;;;1.70;99.90;;;;;;5038895;28;20046;-72
2023/12/08 01:20:36;;;;;;;20.23;10.43;;;1.70;99.90;;;;;;5044484;28;20412;-72
2023/12/08 01:23:02;;;;;;;25.90;12.25;;;1.60;99.90;;;;;;5041695;28;20127;-72
2023/12/08 01:25:27;;;;;;;21.98;11.25;;;1.60;99.90;;;;;;5038993;28;20537;-72
2023/12/08 01:27:55;;;;;;;21.88;10.63;;;1.60;99.90;;;;;;5047405;28;20051;-71
2023/12/08 01:30:21;;;;;;;22.33;11.82;;;1.60;99.90;;;;;;5042080;28;20049;-72
2023/12/08 01:32:46;;;;;;;20.67;10.77;;;1.60;99.90;;;;;;5044498;28;20053;-72
2023/12/08 01:35:12;;;;;;;19.40;11.38;;;1.60;99.90;;;;;;5045489;28;20614;-72
2023/12/08 01:37:37;;;;;;;21.35;10.95;;;1.60;99.90;;;;;;5045647;28;20120;-72
2023/12/08 01:40:04;;;;;;;21.27;10.65;;;1.60;99.90;;;;;;5046719;28;20123;-72
2023/12/08 01:42:29;;;;;;;19.58;10.50;;;1.60;99.90;;;;;;5041216;28;20079;-72
2023/12/08 01:44:55;;;;;;;19.90;10.13;;;1.60;99.90;;;;;;5066304;28;20453;-72
2023/12/08 01:47:21;;;;;;;20.55;11.00;;;1.60;99.90;;;;;;5037924;28;20040;-72
2023/12/08 01:49:47;;;;;;;21.20;11.32;;;1.60;99.90;;;;;;5050981;28;20049;-73
2023/12/08 01:52:22;;;;;;;22.52;11.13;;;1.60;99.90;;;;;;5046971;28;20037;-73
2023/12/08 01:54:53;;;;;;;22.92;11.50;;;1.70;99.90;;;;;;5043697;28;20044;-72
2023/12/08 01:57:19;;;;;;;20.38;10.27;;;1.60;99.90;;;;;;5039897;28;20063;-73
2023/12/08 01:59:50;;;;;;;19.67;10.43;;;1.60;99.90;;;;;;5036677;28;20045;-73
2023/12/08 02:02:17;;;;;;;19.77;11.13;;;1.70;99.90;;;;;;5042364;28;21212;-72
2023/12/08 02:04:44;;;;;;;27.63;11.43;;;1.60;99.90;;;;;;5045583;28;20397;-73
2023/12/08 02:07:11;;;;;;;19.30;9.93;;;1.70;99.90;;;;;;5042290;28;20045;-72
2023/12/08 02:09:36;;;;;;;18.67;9.13;;;1.70;99.90;;;;;;5044894;28;20051;-72
2023/12/08 02:12:03;;;;;;;21.48;10.93;;;1.70;99.90;;;;;;5031366;28;20045;-72
2023/12/08 02:14:29;;;;;;;20.40;10.40;;;1.70;99.90;;;;;;5038645;28;20037;-72
2023/12/08 02:17:04;;;;;;;19.05;11.25;;;1.60;99.90;;;;;;5043509;28;20053;-72
2023/12/08 02:19:30;;;;;;;17.50;9.60;;;1.70;99.90;;;;;;5039167;28;20155;-73
2023/12/08 02:21:56;;;;;;;25.13;10.35;;;1.60;99.90;;;;;;5045377;28;20057;-72
2023/12/08 02:24:22;;;;;;;21.85;10.82;;;1.70;99.90;;;;;;5038560;28;20048;-72
2023/12/08 02:26:49;;;;;;;20.50;10.05;;;1.70;99.90;;;;;;5035858;28;20489;-72
2023/12/08 02:29:15;;;;;;;19.35;10.40;;;1.70;99.90;;;;;;5040690;28;20105;-73
2023/12/08 02:31:47;;;;;;;19.67;10.10;;;1.70;99.90;;;;;;5040462;28;20068;-73
2023/12/08 02:34:17;;;;;;;22.58;10.90;;;1.70;99.90;;;;;;5044215;28;20176;-72
2023/12/08 02:36:46;;;;;;;18.67;9.60;;;1.70;99.90;;;;;;5040483;28;20059;-72
2023/12/08 02:39:15;;;;;;;19.40;9.93;;;1.70;99.90;;;;;;5045087;28;20044;-72
2023/12/08 02:41:44;;;;;;;22.70;10.18;;;1.70;99.90;;;;;;5042838;28;20049;-72
2023/12/08 02:44:10;;;;;;;21.13;10.48;;;1.70;99.90;;;;;;5050946;28;20037;-72
2023/12/08 02:46:36;;;;;;;18.83;9.30;;;1.70;99.90;;;;;;5056634;28;20109;-72
2023/12/08 02:49:01;;;;;;;20.00;9.80;;;1.70;99.90;;;;;;5045982;28;20395;-72
2023/12/08 02:51:27;;;;;;;18.88;10.32;;;1.80;99.90;;;;;;5042215;28;20044;-72
2023/12/08 02:53:53;;;;;;;20.75;10.07;;;1.80;99.90;;;;;;5047468;28;20095;-72
2023/12/08 02:56:18;;;;;;;16.90;9.10;;;1.70;99.90;;;;;;5036315;28;20049;-72
2023/12/08 02:58:45;;;;;;;17.38;9.07;;;1.80;99.90;;;;;;5043419;28;20052;-72
2023/12/08 03:01:11;;;;;;;19.48;9.85;;;1.80;99.90;;;;;;5060693;28;20056;-72
2023/12/08 03:03:36;;;;;;;16.92;9.63;;;1.80;99.90;;;;;;5075194;28;20055;-72
2023/12/08 03:06:02;;;;;;;19.88;9.43;;;1.80;99.90;;;;;;5047665;28;20041;-72
2023/12/08 03:08:28;;;;;;;16.27;8.82;;;1.80;99.90;;;;;;5044087;28;20041;-72
2023/12/08 03:10:54;;;;;;;18.60;9.98;;;1.80;99.90;;;;;;5052717;28;20492;-72
2023/12/08 03:13:20;;;;;;;15.88;9.32;;;1.80;99.90;;;;;;5037041;28;20449;-72
2023/12/08 03:15:45;;;;;;;18.55;9.90;;;1.80;99.90;;;;;;5045459;28;20052;-72
2023/12/08 03:18:11;;;;;;;19.40;9.57;;;1.90;99.90;;;;;;5050642;28;20041;-72
2023/12/08 03:20:36;;;;;;;20.17;8.95;;;1.80;99.90;;;;;;5042916;28;20064;-72
2023/12/08 03:23:02;;;;;;;16.30;8.57;;;1.80;99.90;;;;;;5044202;28;20041;-72
2023/12/08 03:25:28;;;;;;;18.60;9.70;;;1.90;99.90;;;;;;5044578;28;20682;-72
2023/12/08 03:27:53;;;;;;;18.48;8.88;;;1.90;99.90;;;;;;5044216;28;20135;-72
2023/12/08 03:30:19;;;;;;;18.52;9.45;;;1.90;99.90;;;;;;5051054;28;21032;-72
2023/12/08 03:32:45;;;;;;;20.35;9.15;;;1.90;99.90;;;;;;5038704;28;20403;-72
2023/12/08 03:35:10;;;;;;;21.42;9.35;;;1.90;99.90;;;;;;5050502;28;20646;-73
2023/12/08 03:37:36;;;;;;;20.95;10.05;;;1.90;99.90;;;;;;5047272;28;20056;-72
2023/12/08 03:40:02;;;;;;;19.38;9.48;;;1.90;99.90;;;;;;5047316;28;20056;-72
2023/12/08 03:42:28;;;;;;;16.50;8.70;;;1.90;99.90;;;;;;5047370;28;20497;-72
2023/12/08 03:44:53;;;;;;;19.95;10.52;;;1.90;99.90;;;;;;5036952;28;20056;-72
2023/12/08 03:47:19;;;;;;;18.92;10.02;;;1.90;99.90;;;;;;5047663;28;20036;-72
2023/12/08 03:49:44;;;;;;;18.25;9.75;;;1.90;99.90;;;;;;5044996;28;20056;-72
2023/12/08 03:52:10;;;;;;;22.25;11.02;;;1.90;99.90;;;;;;5045152;28;20594;-72
2023/12/08 03:54:36;;;;;;;22.63;10.40;;;1.80;99.90;;;;;;5046500;28;20352;-72
2023/12/08 03:57:01;;;;;;;18.95;9.40;;;1.70;99.90;;;;;;5045796;28;20473;-72
2023/12/08 03:59:27;;;;;;;18.77;9.18;;;1.70;99.90;;;;;;5044246;28;20144;-72
2023/12/08 04:01:53;;;;;;;18.25;9.57;;;1.60;99.90;;;;;;5045300;28;20053;-72
2023/12/08 04:04:18;;;;;;;20.48;9.20;;;1.60;99.90;;;;;;5040364;28;20170;-72
2023/12/08 04:06:44;;;;;;;19.00;9.40;;;1.60;99.90;;;;;;5040251;28;20489;-73
2023/12/08 04:09:10;;;;;;;19.35;11.10;;;1.60;99.90;;;;;;5051054;28;20041;-73
2023/12/08 04:11:35;;;;;;;18.70;9.00;;;1.60;99.90;;;;;;5031276;28;20135;-73
2023/12/08 04:14:01;;;;;;;18.98;10.18;;;1.60;99.90;;;;;;5041303;28;20072;-73
2023/12/08 04:16:27;;;;;;;19.35;10.95;;;1.60;99.90;;;;;;5032128;28;20132;-73
2023/12/08 04:18:52;;;;;;;19.77;10.75;;;1.60;99.90;;;;;;5039785;28;20051;-73
2023/12/08 04:21:19;;;;;;;19.35;10.27;;;1.50;99.90;;;;;;5042149;28;20037;-73
2023/12/08 04:23:45;;;;;;;22.15;10.13;;;1.60;99.90;;;;;;5045293;28;20128;-73
2023/12/08 04:26:11;;;;;;;22.83;11.00;;;1.60;99.90;;;;;;5048203;28;20667;-71
2023/12/08 04:28:37;;;;;;;22.73;9.45;;;1.50;99.90;;;;;;5037465;28;20568;-72
2023/12/08 04:31:03;;;;;;;19.77;10.30;;;1.50;99.90;;;;;;5073396;28;20045;-73
2023/12/08 04:33:29;;;;;;;21.80;9.82;;;1.60;99.90;;;;;;5045596;28;20056;-72
2023/12/08 04:35:54;;;;;;;21.52;10.55;;;1.50;99.90;;;;;;5047422;28;20041;-73
2023/12/08 04:38:20;;;;;;;23.92;11.45;;;1.50;99.90;;;;;;5045422;28;20685;-72
2023/12/08 04:40:46;;;;;;;20.40;9.55;;;1.60;99.90;;;;;;5045676;28;20440;-72
2023/12/08 04:43:12;;;;;;;20.40;10.13;;;1.50;99.90;;;;;;5037060;28;20099;-72
2023/12/08 04:45:37;;;;;;;18.77;10.13;;;1.50;99.90;;;;;;5041941;28;20048;-73
2023/12/08 04:48:03;;;;;;;24.95;10.82;;;1.50;99.90;;;;;;5042126;28;20041;-72
2023/12/08 04:50:29;;;;;;;19.67;11.48;;;1.60;99.90;;;;;;5043855;28;20049;-72
2023/12/08 04:52:55;;;;;;;21.00;11.07;;;1.50;99.90;;;;;;5043497;28;20060;-72
2023/12/08 04:55:20;;;;;;;20.67;10.57;;;1.50;99.90;;;;;;5044853;28;20179;-72
2023/12/08 04:57:46;;;;;;;21.20;10.82;;;1.50;99.90;;;;;;5036948;28;20037;-73
2023/12/08 05:00:12;;;;;;;18.88;9.77;;;1.60;99.90;;;;;;5048763;28;20559;-72
2023/12/08 05:02:37;;;;;;;19.90;9.40;;;1.60;99.90;;;;;;5037337;28;20120;-72
2023/12/08 05:05:03;;;;;;;19.65;9.77;;;1.60;99.90;;;;;;5039614;28;20492;-72
2023/12/08 05:07:29;;;;;;;18.85;10.32;;;1.60;99.90;;;;;;5052455;28;20036;-71
2023/12/08 05:09:55;;;;;;;19.90;10.07;;;1.60;99.90;;;;;;5043972;28;20050;-72
2023/12/08 05:12:20;;;;;;;22.27;10.63;;;1.60;99.90;;;;;;5039811;28;20476;-72
2023/12/08 05:14:46;;;;;;;21.70;11.18;;;1.50;99.90;;;;;;5044217;28;20103;-72
2023/12/08 05:17:11;;;;;;;21.73;10.35;;;1.50;99.90;;;;;;5039452;28;20097;-73
2023/12/08 05:19:37;;;;;;;22.02;11.00;;;1.50;99.90;;;;;;5045071;28;20521;-73
2023/12/08 05:22:04;;;;;;;18.90;10.25;;;1.50;99.90;;;;;;5044108;28;20044;-72
2023/12/08 05:24:29;;;;;;;22.27;10.80;;;1.50;99.90;;;;;;5038589;28;20044;-73
2023/12/08 05:26:55;;;;;;;21.40;11.15;;;1.50;99.90;;;;;;5038445;28;20032;-72
2023/12/08 05:29:21;;;;;;;22.35;11.35;;;1.50;99.90;;;;;;5040011;28;20086;-73
2023/12/08 05:31:47;;;;;;;24.92;11.80;;;1.50;99.90;;;;;;5043475;28;20051;-72
2023/12/08 05:34:13;;;;;;;21.58;10.82;;;1.40;99.90;;;;;;5039007;28;20037;-72
2023/12/08 05:36:39;;;;;;;23.15;10.88;;;1.50;99.90;;;;;;5038370;28;20561;-73
2023/12/08 05:39:06;;;;;;;21.67;11.18;;;1.40;99.90;;;;;;5036384;28;20829;-72
2023/12/08 05:41:31;;;;;;;20.65;11.20;;;1.50;99.90;;;;;;5043859;28;20048;-72
2023/12/08 05:43:57;;;;;;;24.27;11.60;;;1.40;99.90;;;;;;5038192;28;20029;-73
2023/12/08 05:46:23;;;;;;;21.38;10.48;;;1.40;99.90;;;;;;5039453;28;20051;-72
2023/12/08 05:48:48;;;;;;;18.90;10.10;;;1.40;99.90;;;;;;5047404;28;20143;-72
2023/12/08 05:51:14;;;;;;;22.55;11.10;;;1.40;99.90;;;;;;5041623;28;20047;-73
2023/12/08 05:53:39;;;;;;;22.27;9.77;;;1.40;99.90;;;;;;5042165;28;20049;-72
2023/12/08 05:56:05;;;;;;;21.48;10.00;;;1.40;99.90;;;;;;5044638;28;20048;-72
2023/12/08 05:58:31;;;;;;;21.50;11.23;;;1.40;99.90;;;;;;5035355;28;20481;-73
2023/12/08 06:00:57;;;;;;;22.52;11.50;;;1.40;99.90;;;;;;5038358;28;20048;-72
2023/12/08 06:03:22;;;;;;;20.30;9.98;;;1.30;99.90;;;;;;5037240;28;20442;-72
2023/12/08 06:05:48;;;;;;;20.98;10.57;;;1.40;99.90;;;;;;5039621;28;20064;-72
2023/12/08 06:08:14;;;;;;;20.00;9.70;;;1.40;99.90;;;;;;5045609;28;20110;-72
2023/12/08 06:10:39;;;;;;;22.92;9.75;;;1.40;99.90;;;;;;5041133;28;20048;-72
2023/12/08 06:13:05;;;;;;;20.17;9.93;;;1.40;99.90;;;;;;5045897;28;20388;-72
2023/12/08 06:15:31;;;;;;;24.27;11.13;;;1.40;99.90;;;;;;5044881;28;20515;-72
2023/12/08 06:17:56;;;;;;;22.80;10.02;;;1.30;99.90;;;;;;5037287;28;20061;-72
2023/12/08 06:20:22;;;;;;;19.70;10.23;;;1.40;99.90;;;;;;5037336;28;20056;-72
2023/12/08 06:22:47;;;;;;;20.77;11.27;;;1.40;99.90;;;;;;5043361;28;20037;-72
2023/12/08 06:25:13;;;;;;;21.58;11.38;;;1.40;99.90;;;;;;5044997;28;20047;-73
2023/12/08 06:27:39;;;;;;;22.17;10.45;;;1.40;99.90;;;;;;5033598;28;20045;-72
2023/12/08 06:30:07;;;;;;;20.65;10.57;;;1.30;99.90;;;;;;5034690;28;20435;-72
2023/12/08 06:32:33;;;;;;;23.55;11.23;;;1.40;99.90;;;;;;5039205;28;20055;-74
2023/12/08 06:34:59;;;;;;;22.48;10.48;;;1.30;99.90;;;;;;5038822;28;20175;-73
2023/12/08 06:37:24;;;;;;;25.02;11.82;;;1.30;99.90;;;;;;5038249;28;20049;-73
2023/12/08 06:39:50;;;;;;;22.13;9.93;;;1.30;99.90;;;;;;5038155;28;20551;-72
2023/12/08 06:42:16;;;;;;;21.83;11.02;;;1.30;99.90;;;;;;5037890;28;20123;-71
2023/12/08 06:44:42;;;;;;;22.48;10.57;;;1.30;99.90;;;;;;5038573;28;20051;-72
2023/12/08 06:47:08;;;;;;;23.38;10.68;;;1.30;99.90;;;;;;5038591;28;20588;-73
2023/12/08 06:49:34;;;;;;;23.80;11.32;;;1.40;99.90;;;;;;5030473;28;20128;-73
2023/12/08 06:51:59;;;;;;;22.00;10.95;;;1.40;99.90;;;;;;5040602;28;20445;-72
2023/12/08 06:54:25;;;;;;;22.92;10.45;;;1.30;99.90;;;;;;5042477;28;20549;-72
2023/12/08 06:56:51;;;;;;;24.27;10.95;;;1.30;99.90;;;;;;5042982;28;20041;-73
2023/12/08 06:59:17;;;;;;;22.38;10.45;;;1.40;99.90;;;;;;5038672;28;20056;-73
2023/12/08 07:01:43;;;;;;;20.27;10.02;;;1.30;99.90;;;;;;5038340;28;20117;-72
2023/12/08 07:04:09;;;;;;;19.42;10.20;;;1.40;99.90;;;;;;5036935;28;20049;-72
2023/12/08 07:06:35;;;;;;;21.63;11.13;;;1.40;99.90;;;;;;5040800;28;20049;-72
2023/12/08 07:09:01;;;;;;;21.98;10.80;;;1.40;99.90;;;;;;5041269;28;20038;-72
2023/12/08 07:11:26;;;;;;;21.27;10.18;;;1.40;99.90;;;;;;5040834;28;20048;-72
2023/12/08 07:13:52;;;;;;;22.80;11.77;;;1.40;99.90;;;;;;5039021;28;20123;-72
2023/12/08 07:16:18;;;;;;;25.25;11.23;;;1.40;99.90;;;;;;5041932;28;20037;-72
2023/12/08 07:18:43;;;;;;;22.55;10.55;;;1.40;99.90;;;;;;5044316;28;20050;-72
2023/12/08 07:21:09;;;;;;;23.20;11.27;;;1.40;99.90;;;;;;5066362;28;20103;-72
2023/12/08 07:23:35;;;;;;;26.23;11.90;;;1.30;99.90;;;;;;5040599;28;20059;-73
2023/12/08 07:26:02;;;;;;;25.17;10.63;;;1.30;99.90;;;;;;5041337;28;20056;-73
2023/12/08 07:28:27;;;;;;;22.23;10.60;;;1.30;99.90;;;;;;5041911;28;20548;-72
2023/12/08 07:30:53;;;;;;;23.38;10.43;;;1.30;99.90;;;;;;5045383;28;20048;-72
2023/12/08 07:33:20;;;;;;;22.30;9.52;;;1.30;99.90;;;;;;5040760;28;20048;-73
2023/12/08 07:35:46;;;;;;;23.30;10.00;;;1.30;99.90;;;;;;5038307;28;20040;-72
2023/12/08 07:38:12;;;;;;;19.77;9.57;;;1.30;99.90;;;;;;5033577;28;20610;-72
2023/12/08 07:40:37;;;;;;;22.60;10.90;;;1.30;99.90;;;;;;5039200;28;20048;-73
2023/12/08 07:43:03;;;;;;;23.25;10.35;;;1.30;99.90;;;;;;5043344;28;20028;-72
2023/12/08 07:45:29;;;;;;;22.45;11.60;;;1.30;99.90;;;;;;5035818;28;20069;-72
2023/12/08 07:47:55;;;;;;;24.10;11.52;;;1.40;99.90;;;;;;5046634;28;20048;-72
2023/12/08 07:50:21;;;;;;;21.23;10.10;;;1.40;99.90;;;;;;5034205;28;20044;-72
2023/12/08 07:52:47;;;;;;;25.48;11.75;;;1.30;99.90;;;;;;5038718;28;20535;-72
2023/12/08 07:55:13;;;;;;;23.38;10.52;;;1.40;99.90;;;;;;5041694;28;20045;-72
2023/12/08 07:57:38;;;;;;;22.25;10.32;;;1.40;99.90;;;;;;5037890;28;20049;-73
2023/12/08 08:00:06;;;;;;;22.40;11.10;;;1.40;99.90;;;;;;5037030;28;20049;-73
2023/12/08 08:02:32;;;;;;;21.38;9.73;;;1.40;99.90;;;;;;5065298;28;20037;-72
2023/12/08 08:04:58;;;;;;;23.88;11.27;;;1.40;99.90;;;;;;5042606;28;20059;-73
2023/12/08 08:07:24;;;;;;;20.45;10.15;;;1.40;99.90;;;;;;5036447;28;20056;-73
2023/12/08 08:09:51;;;;;;;22.55;10.10;;;1.40;99.90;;;;;;5036801;28;20050;-73
2023/12/08 08:12:17;;;;;;;23.38;11.00;;;1.40;99.90;;;;;;5042730;28;20087;-73
2023/12/08 08:14:43;;;;;;;25.20;10.80;;;1.50;99.90;;;;;;5041807;28;21588;-73
2023/12/08 08:17:08;;;;;;;21.80;11.07;;;1.50;99.90;;;;;;5040757;28;20120;-73
2023/12/08 08:19:34;;;;;;;23.80;10.65;;;1.50;99.90;;;;;;5042727;28;20173;-73
2023/12/08 08:22:00;;;;;;;25.33;11.05;;;1.50;99.90;;;;;;5044969;28;20075;-72
2023/12/08 08:24:29;;;;;;;23.52;11.25;;;1.50;99.90;;;;;;5038718;28;20060;-73
2023/12/08 08:26:55;;;;;;;23.02;10.10;;;1.50;99.90;;;;;;5045263;28;20061;-73
2023/12/08 08:29:21;;;;;;;20.52;11.20;;;1.50;99.90;;;;;;5037566;28;20033;-74
2023/12/08 08:31:46;;;;;;;21.92;10.60;;;1.50;99.90;;;;;;5046975;28;20075;-73
2023/12/08 08:34:12;;;;;;;21.15;10.20;;;1.50;99.90;;;;;;5047200;28;20637;-73
2023/12/08 08:36:37;;;;;;;22.02;10.35;;;1.50;99.90;;;;;;5041574;28;20053;-74
2023/12/08 08:39:03;;;;;;;20.45;10.10;;;1.50;99.90;;;;;;5049304;28;20048;-75
2023/12/08 08:41:29;;;;;;;22.77;10.10;;;1.50;99.90;;;;;;5033508;28;20079;-73
2023/12/08 08:43:55;;;;;;;21.77;10.55;;;1.50;99.90;;;;;;5045649;28;20037;-73
2023/12/08 08:46:21;;;;;;;24.67;12.27;;;1.50;99.90;;;;;;5049864;28;20059;-73
2023/12/08 08:48:46;;;;;;;20.27;10.73;;;1.50;99.90;;;;;;5045817;28;20049;-73
2023/12/08 08:51:14;;;;;;;20.58;10.15;;;1.50;99.90;;;;;;5046969;28;20047;-72
2023/12/08 08:53:39;;;;;;;;;;;1.50;99.90;;;;;;5044656;28;20045;-73
2023/12/08 08:56:05;;;;;;;19.98;11.27;;;1.50;99.90;;;;;;5048449;28;19998;-72
2023/12/08 08:58:32;;;;;;;22.98;10.77;;;1.50;99.90;;;;;;5048170;28;20041;-73
2023/12/08 09:00:58;;;;;;;22.17;11.33;;;1.60;99.90;;;;;;5032249;28;20079;-72
2023/12/08 09:03:23;;;;;;;20.27;11.13;;;1.60;99.90;;;;;;5044726;28;20291;-72
2023/12/08 09:05:49;;;;;;;22.10;11.38;;;1.60;99.90;;;;;;5049168;28;20071;-74
2023/12/08 09:08:15;;;;;;;20.83;10.93;;;1.60;99.90;;;;;;5045969;28;20037;-74
2023/12/08 09:10:45;;;;;;;21.85;10.43;;;1.60;99.90;;;;;;5054108;28;20048;-73
2023/12/08 09:13:11;;;;;;;23.83;11.48;;;1.60;99.90;;;;;;5046068;28;20033;-73
2023/12/08 09:15:37;;;;;;;22.60;10.40;;;1.60;99.90;;;;;;5058862;28;20181;-73
2023/12/08 09:18:03;;;;;;;20.95;10.45;;;1.70;99.90;;;;;;5035667;28;20359;-74
2023/12/08 09:20:28;;;;;;;21.77;11.02;;;1.70;99.90;;;;;;5049273;28;20048;-75
2023/12/08 09:22:54;;;;;;;20.70;11.18;;;1.70;99.90;;;;;;5049158;28;20442;-74
2023/12/08 09:25:20;;;;;;;21.40;10.57;;;1.70;99.90;;;;;;5035743;28;20044;-74
2023/12/08 09:27:47;;;;;;;19.33;9.60;;;1.70;99.90;;;;;;5038308;28;20068;-74
2023/12/08 09:30:13;;;;;;;21.33;10.93;;;1.60;99.90;;;;;;5047716;28;20033;-74
2023/12/08 09:32:38;;;;;;;21.83;10.35;;;1.70;99.90;;;;;;5038197;28;20044;-74
2023/12/08 09:35:04;;;;;;;22.13;11.32;;;1.70;99.90;;;;;;5036991;28;20060;-73
2023/12/08 09:37:30;;;;;;;20.17;9.90;;;1.70;99.90;;;;;;5043048;28;20049;-73
2023/12/08 09:39:56;;;;;;;19.75;9.95;;;1.70;99.90;;;;;;5041320;28;20060;-72
2023/12/08 09:42:30;;;;;;;21.35;11.07;;;1.70;99.90;;;;;;5042842;28;20041;-73
2023/12/08 09:44:55;;;;;;;22.75;10.32;;;1.80;99.90;;;;;;5042629;28;20045;-72
2023/12/08 09:47:24;;;;;;;23.13;11.73;;;1.70;99.90;;;;;;5063824;28;20412;-73
2023/12/08 09:49:52;;;;;;;22.42;10.68;;;1.80;99.90;;;;;;5061746;28;20095;-73
2023/12/08 09:52:17;;;;;;;23.63;11.35;;;1.70;99.90;;;;;;5026832;28;20143;-76
2023/12/08 09:54:43;;;;;;;21.05;10.60;;;1.70;99.90;;;;;;5046568;28;20127;-76
2023/12/08 09:57:10;;;;;;;23.75;11.73;;;1.80;99.90;;;;;;5046119;28;20142;-77
2023/12/08 09:59:38;;;;;;;27.17;11.77;;;1.80;99.90;;;;;;5046603;28;20664;-80
2023/12/08 10:02:04;;;;;;;21.50;10.35;;;1.90;99.90;;;;;;5045819;28;20064;-78
2023/12/08 10:04:30;;;;;;;22.20;11.75;;;1.90;99.90;;;;;;5043979;28;20040;-72
2023/12/08 10:06:56;;;;;;;23.33;10.93;;;2.00;99.90;;;;;;5044900;28;20045;-73
2023/12/08 10:09:22;;;;;;;22.83;11.20;;;2.00;99.90;;;;;;5046071;28;20045;-78
2023/12/08 10:11:49;;;;;;;22.70;11.50;;;2.10;99.90;;;;;;5045040;28;20400;-78
2023/12/08 10:14:15;;;;;;;21.98;12.40;;;2.10;99.90;;;;;;5040708;28;20051;-75
2023/12/08 10:16:43;;;;;;;22.42;12.30;;;2.10;99.90;;;;;;5040398;28;20053;-74
2023/12/08 10:19:09;;;;;;;21.98;11.38;;;2.10;99.90;;;;;;5040428;28;20132;-75
2023/12/08 10:21:36;;;;;;;24.55;12.02;;;2.10;99.90;;;;;;5038420;28;20136;-75
2023/12/08 10:24:03;;;;;;;24.08;12.70;;;2.00;99.90;;;;;;5041616;28;20040;-75
2023/12/08 10:26:32;;;;;;;22.40;11.63;;;2.10;99.90;;;;;;5034260;28;20051;-75
2023/12/08 10:28:59;;;;;;;23.42;11.15;;;2.00;99.90;;;;;;5041159;28;20037;-73
2023/12/08 10:31:25;;;;;;;22.85;12.43;;;2.10;99.90;;;;;;5045637;28;20052;-75
2023/12/08 10:33:52;;;;;;;25.05;12.88;;;2.00;99.90;;;;;;5033943;28;20040;-75
2023/12/08 10:36:18;;;;;;;23.00;12.55;;;2.10;99.90;;;;;;5048090;28;20396;-75
2023/12/08 10:38:45;;;;;;;22.85;12.23;;;2.10;99.90;;;;;;5045461;28;20370;-74
2023/12/08 10:41:11;;;;;;;22.38;12.35;;;2.10;99.90;;;;;;5040476;28;20041;-73
2023/12/08 10:43:37;;;;;;;25.00;12.40;;;2.10;99.90;;;;;;5045264;28;20574;-74
2023/12/08 10:46:03;;;;;;;25.00;13.80;;;2.10;99.90;;;;;;5049150;28;20049;-74
2023/12/08 10:48:29;;;;;;;26.20;12.25;;;2.10;99.90;;;;;;5046105;28;20040;-83
2023/12/08 10:50:56;;;;;;;22.38;10.10;;;2.10;99.90;;;;;;5050306;28;20047;-79
2023/12/08 10:53:22;;;;;;;22.08;9.02;;;2.10;99.90;;;;;;5051454;28;20131;-78
2023/12/08 10:56:10;;;;;;;16.48;8.30;;;2.20;99.90;;;;;;5044412;28;20615;-78
2023/12/08 10:58:39;;;;;;;20.40;9.18;;;2.20;99.90;;;;;;5050302;28;20044;-77
2023/12/08 11:01:12;;;;;;;18.40;9.88;;;2.20;99.90;;;;;;5046172;28;20057;-81
2023/12/08 11:03:39;;;;;;;22.35;9.93;;;2.20;99.90;;;;;;5046657;28;20060;-78
2023/12/08 11:06:28;;;;;;;22.98;9.52;;;2.20;99.90;;;;;;5043480;28;20455;-78
2023/12/08 11:09:00;;;;;;;23.63;9.65;;;2.20;99.90;;;;;;5047979;28;20133;-77
2023/12/08 11:11:28;;;;;;;21.27;9.27;;;2.20;99.90;;;;;;5049965;28;20044;-77
2023/12/08 11:14:04;;;;;;;24.33;10.25;;;2.20;99.90;;;;;;5048827;28;20048;-78
2023/12/08 11:16:51;;;;;;;22.80;10.68;;;2.20;99.90;;;;;;5048633;28;20041;-77
2023/12/08 11:19:19;;;;;;;24.13;10.73;;;2.30;99.90;;;;;;5048337;28;20053;-81
2023/12/08 11:21:45;;;;;;;26.30;11.02;;;2.30;99.90;;;;;;5049746;28;20056;-80
2023/12/08 11:24:11;;;;;;;25.42;11.88;;;2.30;99.90;;;;;;5049657;28;20131;-81
2023/12/08 11:26:56;;;;;;;24.88;10.82;;;2.30;99.90;;;;;;5045189;28;20147;-80
2023/12/08 11:30:08;;;;;;;21.73;11.27;;;2.30;99.90;;;;;;5049407;28;20033;-81
2023/12/08 11:33:00;;;;;;;21.92;10.68;;;2.30;99.90;;;;;;5051253;28;20040;-81
2023/12/08 11:35:28;;;;;;;26.45;12.38;;;2.30;99.90;;;;;;5045821;28;20052;-78
2023/12/08 11:37:54;;;;;;;28.10;12.52;;;2.40;99.90;;;;;;5049442;28;20037;-78
2023/12/08 11:40:20;;;;;;;27.67;12.75;;;2.30;99.90;;;;;;5060652;28;20044;-78
2023/12/08 11:42:47;;;;;;;26.73;11.95;;;2.40;99.90;;;;;;5077527;28;20076;-74
2023/12/08 11:45:13;;;;;;;25.75;11.13;;;2.40;99.90;;;;;;5046710;28;20067;-74
2023/12/08 11:47:39;;;;;;;25.33;11.63;;;2.40;99.90;;;;;;5050065;28;20492;-74
2023/12/08 11:50:10;;;;;;;26.08;13.23;;;2.40;99.90;;;;;;5050380;28;20484;-78
2023/12/08 11:52:37;;;;;;;28.98;12.43;;;2.40;99.90;;;;;;5065925;28;20511;-77
2023/12/08 11:55:09;;;;;;;30.42;13.75;;;2.40;99.90;;;;;;5049619;28;20037;-76
2023/12/08 11:57:39;;;;;;;27.85;13.27;;;2.40;99.90;;;;;;5042123;28;20540;-74
2023/12/08 12:00:10;;;;;;;27.80;12.50;;;2.50;99.90;;;;;;5047353;28;20132;-74
2023/12/08 12:02:40;;;;;;;25.98;12.30;;;2.50;99.90;;;;;;5039040;28;20560;-74
2023/12/08 12:05:06;;;;;;;31.75;12.57;;;2.50;99.90;;;;;;5048060;28;20107;-74
2023/12/08 12:07:32;;;;;;;25.17;10.85;;;2.60;99.90;;;;;;5048905;28;20049;-74
2023/12/08 12:09:59;;;;;;;32.35;13.20;;;2.50;99.90;;;;;;5035412;28;20131;-75
2023/12/08 12:12:30;;;;;;;29.02;12.60;;;2.50;99.90;;;;;;5039352;28;20094;-74
2023/12/08 12:14:59;;;;;;;26.90;12.77;;;2.60;99.90;;;;;;5047558;28;20091;-75
2023/12/08 12:17:25;;;;;;;28.33;12.02;;;2.60;99.90;;;;;;5048623;28;20068;-74
2023/12/08 12:19:52;;;;;;;27.40;11.68;;;2.60;99.90;;;;;;5054216;28;20049;-75
2023/12/08 12:22:18;;;;;;;31.17;12.70;;;2.60;99.90;;;;;;5054540;28;20076;-77
2023/12/08 12:24:45;;;;;;;26.55;12.20;;;2.60;99.90;;;;;;5050970;28;20041;-76
2023/12/08 12:27:10;;;;;;;28.50;13.02;;;2.60;99.90;;;;;;5047070;28;20048;-78
2023/12/08 12:29:36;;;;;;;31.45;13.20;;;2.60;99.90;;;;;;5037527;28;20053;-77
2023/12/08 12:32:08;;;;;;;24.52;11.70;;;2.60;99.90;;;;;;5039905;28;20037;-76
2023/12/08 12:34:37;;;;;;;32.10;13.48;;;2.60;99.90;;;;;;5040108;28;20040;-75